Share

Estill, SC

11:24 PM EDT on April 23, 2014 (GMT -0400)
Joe Miley Road (KSCBRUNS5) Elev 135 ft | 32.94 °N, 81.13 °W | Change Station
Active Advisory: Flood Warning

Current weather conditions updated 5 minutes ago

Clear
Clear
53.8 °F
Feels Like 53.8 °F
N
0.0
Wind Variable Wind from NE
Sunrise 6:46 AM
Sunset 8:00 PM
Moon Waning Crescent

Tomorrow is forecast to be Much Cooler than today.

Pressure 29.92 in
Visibility 10.0 miles
Clouds Clear
Dew Point 52 °F
Humidity 92%
Rainfall 0.01 in
Snow Depth Not available.
UV 0 out of 16
Pollen 9.10 out of 12
Air Quality Not available.
Flu Activity Local Activity
METAR KJYL 240315Z AUTO 00000KT 10SM CLR 16/12 A2992 RMK AO2 T01550122

More Conditions Fewer Conditions

Pressure 29.92 in
Visibility 10.0 miles
Clouds Clear
Dew Point 52 °F
Humidity 92%
Rainfall 0.01 in
Snow Depth Not available.
UV 0 out of 16
Pollen 9.10 out of 12
Air Quality Not available.
Flu Activity Local Activity
METAR KJYL 240315Z AUTO 00000KT 10SM CLR 16/12 A2992 RMK AO2 T01550122

More Conditions Fewer Conditions

10-Day Weather Forecast

Almanac

Astronomy

Apr. 23, 2014 Rise Set
Actual Time 6:46 AM EDT 8:00 PM EDT
Civil Twilight 6:20 AM EDT 8:26 PM EDT
Nautical Twilight 5:49 AM EDT 8:57 PM EDT
Astronomical Twilight 5:18 AM EDT 9:29 PM EDT
Moon 2:56 AM EDT (4/23) 2:26 PM EDT (4/23)
Length of Visible Light 14h 06m
Length of Day
13h 14m
Tomorrow will be 1m 49s longer.
Waning Crescent, 30% of the Moon is Illuminated
Today
Waning Crescent
Apr 29
New
May 6
First Quarter
May 14
Full
May 21
Last Quarter

Today's Extremes

State Highs State Lows

Community

  • Balance
    Balance
  • Nestled In
    Nestled In
  • Stunning Sunrise
    Stunning Sunrise
  • spring flowers
    spring flowers
  • Earth Day Spectrum Ove' Blue
    Earth Day Spectrum Ove' Blue

WunderPhotos

Upload Photos

1,704,536 photos uploaded!

WunderBlogs® & News

Nearby

Snow Depth

Station Depth Elevation
No new snow has been reported.

Coastal Water Temperatures

Place Temperature
No Stations Reporting

Earthquake Activity

City Distance Mag. Time & Date
No recent earthquake activity has been reported nearby.
Minimum magnitude displayed is 2.5.

Nearby Weather Stations

Station Location Temp. Dew Point Humidity Wind Precip. Elev Updated Type
Joe Miley Road, Brunson, SC 53.8 °F 52 °F 92% NE  at  0.0 mph - / hr 135 ft 11:18 PM EDT Normal

Show More Stations Show Fewer Stations

What do you think?

We're not finished. Please let us know what you like, what you don't like, and what you are still missing.